Аэропорт: Казань. Казань

ICAO: UWKD

METAR:
2020-08-12 06:30:00
UWKD 120630Z 09002MPS 070V130 CAVOK 18/10 Q1011 R11/CLRD70 NOSIG RMK QFE748/0997
METAR:
2020-08-12 05:00:00
TAF UWKD 120500Z 1206/1306 08002MPS 9999 BKN030 TX20/1212Z TN14/1301Z TEMPO 1206/1212 -SHRA BKN016 BKN020CB TEMPO 1215/1221 -SHRA BKN016 BKN020CB BECMG 1300/1302 12005MPS